KFLL/FLL METAR and TAF weather

Enter ICAO airport designator
Station Type Date Time Source
KFLL METAR 2019/10/23 12:53 UTC NOAA

KFLL 231253Z 11004KT 10SM FEW025 FEW050 FEW250 28/24 A2999 RMK AO2 SLP156 T02780244


Station Type Date Time Source
KFLL Decoded METAR 2019/10/23 12:53 UTC NOAA

FORT LAUDERDALE/HOLLYWOOD, FL, United States (KFLL) 26-04N 080-09W 30M
Oct 23, 2019 - 08:53 AM EDT / 2019.10.23 1253 UTC
Wind: from the ESE (110 degrees) at 5 MPH (4 KT):0
Visibility: 10 mile(s):0
Sky conditions: mostly clear
Temperature: 82.0 F (27.8 C)
Dew Point: 75.9 F (24.4 C)
Relative Humidity: 81%
Pressure (altimeter): 29.99 in. Hg (1015 hPa)
ob: KFLL 231253Z 11004KT 10SM FEW025 FEW050 FEW250 28/24 A2999 RMK AO2 SLP156 T02780244
cycle: 13

Station Type Date Time Source
KFLL TAF 2019/10/23 12:28 UTC NOAA

TAF KFLL 231124Z 2312/2418 VRB05KT P6SM FEW025 SCT060
FM231500 08010KT P6SM VCSH SCT030 BKN060
FM240000 09005KT P6SM FEW025 SCT060
FM241300 09015KT P6SM VCSH SCT030 SCT060

Example: see airport list